createdAt,value
2023-03-26T00:02:26.043Z,99903.53
2023-03-26T00:05:28.752Z,99902.59
2023-03-26T00:08:31.296Z,99892.84
2023-03-26T00:11:33.966Z,99889.97
2023-03-26T00:14:36.441Z,99890.03
2023-03-26T00:17:38.966Z,99883.28
2023-03-26T00:20:41.637Z,99884.97
2023-03-26T00:23:44.555Z,99879.38
2023-03-26T00:26:53.475Z,99878.63
2023-03-26T00:29:56.513Z,99881.03
2023-03-26T00:32:59.570Z,99883.16
2023-03-26T00:36:04.783Z,99879.56
2023-03-26T00:39:07.375Z,99874.13
2023-03-26T00:42:10.382Z,99870.75
2023-03-26T00:45:13.109Z,99869.84
2023-03-26T00:48:16.477Z,99872.53
2023-03-26T00:51:20.709Z,99869.13
2023-03-26T00:54:23.450Z,99867.63
2023-03-26T00:57:35.501Z,99859.94
2023-03-26T01:00:57.437Z,99869.97
2023-03-26T01:04:28.459Z,99853.47
2023-03-26T01:07:32.012Z,99848.31
2023-03-26T01:10:38.835Z,99864.97
2023-03-26T01:14:04.503Z,99863.97
2023-03-26T01:17:07.281Z,99860.88
2023-03-26T01:20:30.554Z,99863.38
2023-03-26T01:24:08.863Z,99871.00
2023-03-26T01:27:24.629Z,99872.97
2023-03-26T01:30:58.705Z,99859.59
2023-03-26T01:34:21.504Z,99870.13
2023-03-26T01:37:52.570Z,99863.38
2023-03-26T01:40:55.529Z,99856.44
2023-03-26T01:44:06.509Z,99875.38
2023-03-26T01:47:08.943Z,99868.34
2023-03-26T01:50:11.693Z,99868.44
2023-03-26T01:53:14.184Z,99866.38
2023-03-26T01:56:42.359Z,99865.50
2023-03-26T01:59:44.675Z,99865.75
2023-03-26T02:03:18.008Z,99865.84
2023-03-26T02:06:25.839Z,99865.75
2023-03-26T02:09:30.554Z,99869.19
2023-03-26T02:12:33.308Z,99871.47
2023-03-26T02:15:35.878Z,99876.66
2023-03-26T02:18:41.263Z,99879.25
2023-03-26T02:21:43.668Z,99877.22
2023-03-26T02:24:46.127Z,99871.91
2023-03-26T02:27:49.843Z,99882.38
2023-03-26T02:30:57.688Z,99876.13
2023-03-26T02:34:00.462Z,99868.66
2023-03-26T02:37:05.273Z,99867.88
2023-03-26T02:40:11.740Z,99870.34
2023-03-26T02:43:17.361Z,99871.88
2023-03-26T02:46:19.754Z,99877.66
2023-03-26T02:49:36.814Z,99864.41
2023-03-26T02:52:39.698Z,99871.28
2023-03-26T02:55:42.360Z,99867.66
2023-03-26T02:58:46.951Z,99863.34
2023-03-26T03:01:49.618Z,99856.13
2023-03-26T03:05:01.700Z,99856.75
2023-03-26T03:08:09.673Z,99863.63
2023-03-26T03:11:17.956Z,99871.47
2023-03-26T03:14:24.706Z,99872.97
2023-03-26T03:17:27.752Z,99867.06
2023-03-26T03:20:30.636Z,99866.91
2023-03-26T03:23:33.120Z,99866.00
2023-03-26T03:26:48.067Z,99865.16
2023-03-26T03:30:19.399Z,99871.88
2023-03-26T03:33:22.001Z,99876.13
2023-03-26T03:36:28.031Z,99872.28
2023-03-26T03:39:40.639Z,99858.50
2023-03-26T03:42:43.896Z,99870.44
2023-03-26T03:45:48.024Z,99857.13
2023-03-26T03:49:07.467Z,99864.88
2023-03-26T03:52:12.808Z,99876.41
2023-03-26T03:55:18.284Z,99890.50
2023-03-26T03:58:28.379Z,99888.19
2023-03-26T04:01:35.454Z,99886.44
2023-03-26T04:04:46.546Z,99884.69
2023-03-26T04:07:51.442Z,99880.41
2023-03-26T04:11:02.811Z,99889.00
2023-03-26T04:14:23.394Z,99888.78
2023-03-26T04:17:42.431Z,99888.03
2023-03-26T04:20:46.595Z,99894.22
2023-03-26T04:23:55.708Z,99891.34
2023-03-26T04:27:20.438Z,99892.03
2023-03-26T04:30:23.307Z,99890.16
2023-03-26T04:33:46.993Z,99887.13
2023-03-26T04:36:54.681Z,99894.81
2023-03-26T04:40:09.656Z,99881.84
2023-03-26T04:43:16.527Z,99886.63
2023-03-26T04:46:43.777Z,99890.50
2023-03-26T04:49:57.977Z,99895.81
2023-03-26T04:53:01.016Z,99896.78
2023-03-26T04:56:45.856Z,99902.38
2023-03-26T04:59:48.459Z,99897.56
2023-03-26T05:02:51.081Z,99897.56
2023-03-26T05:05:54.379Z,99891.03
2023-03-26T05:08:57.674Z,99877.53
2023-03-26T05:12:22.737Z,99874.66
2023-03-26T05:15:33.406Z,99873.00
2023-03-26T05:18:46.619Z,99864.72
2023-03-26T05:21:49.848Z,99881.63
2023-03-26T05:24:52.543Z,99874.63
2023-03-26T05:27:55.396Z,99882.53
2023-03-26T05:31:01.632Z,99872.63
2023-03-26T05:34:08.538Z,99875.72
2023-03-26T05:37:11.247Z,99869.06
2023-03-26T05:40:26.254Z,99875.53
2023-03-26T05:43:37.647Z,99884.59
2023-03-26T05:46:49.037Z,99879.75
2023-03-26T05:49:56.779Z,99890.31
2023-03-26T05:52:59.631Z,99875.53
2023-03-26T05:56:05.681Z,99880.84
2023-03-26T05:59:26.756Z,99874.47
2023-03-26T06:02:56.845Z,99880.16
2023-03-26T06:06:09.745Z,99877.75
2023-03-26T06:09:21.855Z,99876.06
2023-03-26T06:12:24.556Z,99864.59
2023-03-26T06:15:27.105Z,99868.47
2023-03-26T06:18:37.846Z,99861.66
2023-03-26T06:21:58.679Z,99858.38
2023-03-26T06:25:08.752Z,99852.16
2023-03-26T06:28:31.599Z,99858.56
2023-03-26T06:31:54.240Z,99850.00
2023-03-26T06:35:00.746Z,99862.41
2023-03-26T06:38:03.854Z,99859.91
2023-03-26T06:41:09.645Z,99855.69
2023-03-26T06:44:44.516Z,99868.13
2023-03-26T06:48:05.898Z,99865.81
2023-03-26T06:51:34.580Z,99864.16
2023-03-26T06:54:57.440Z,99862.63
2023-03-26T06:58:32.134Z,99862.97
2023-03-26T07:01:53.615Z,99864.09
2023-03-26T07:05:14.820Z,99857.34
2023-03-26T07:08:35.964Z,99855.06
2023-03-26T07:12:07.727Z,99853.50
2023-03-26T07:15:25.229Z,99854.53
2023-03-26T07:18:30.501Z,99869.53
2023-03-26T07:21:34.184Z,99866.97
2023-03-26T07:24:41.075Z,99861.59
2023-03-26T07:28:01.692Z,99867.81
2023-03-26T07:31:45.846Z,99863.84
2023-03-26T07:35:47.223Z,99870.00
2023-03-26T07:39:28.558Z,99877.28
2023-03-26T07:42:50.935Z,99865.28
2023-03-26T07:46:06.269Z,99875.91
2023-03-26T07:49:43.497Z,99883.09
2023-03-26T07:53:04.760Z,99875.31
2023-03-26T07:56:48.725Z,99877.81
2023-03-26T08:00:40.459Z,99873.34
2023-03-26T08:04:24.815Z,99866.31
2023-03-26T08:08:30.034Z,99867.25
2023-03-26T08:12:27.279Z,99866.50
2023-03-26T08:15:45.696Z,99867.53
2023-03-26T08:19:16.775Z,99851.03
2023-03-26T08:22:34.339Z,99847.53
2023-03-26T08:25:49.861Z,99846.69
2023-03-26T08:29:12.001Z,99852.72
2023-03-26T08:32:15.554Z,99853.53
2023-03-26T08:35:18.106Z,99850.94
2023-03-26T08:38:20.998Z,99846.66
2023-03-26T08:41:32.517Z,99844.91
2023-03-26T08:44:47.899Z,99849.28
2023-03-26T08:48:29.886Z,99844.94
2023-03-26T08:51:54.197Z,99843.16
2023-03-26T08:55:32.971Z,99839.69
2023-03-26T08:59:10.503Z,99839.66
2023-03-26T09:02:28.176Z,99835.31
2023-03-26T09:06:07.651Z,99832.34
2023-03-26T09:09:47.689Z,99828.03
2023-03-26T09:12:53.150Z,99838.50
2023-03-26T09:16:33.292Z,99827.09
2023-03-26T09:20:00.171Z,99823.97
2023-03-26T09:23:21.395Z,99823.97
2023-03-26T09:26:36.737Z,99813.03
2023-03-26T09:30:01.185Z,99816.00
2023-03-26T09:33:15.977Z,99814.78
2023-03-26T09:36:22.756Z,99808.75
2023-03-26T09:39:28.109Z,99810.16
2023-03-26T09:42:34.863Z,99802.47
2023-03-26T09:45:57.507Z,99803.69
2023-03-26T09:49:29.875Z,99785.56
2023-03-26T09:52:54.297Z,99785.41
2023-03-26T09:56:21.687Z,99779.13
2023-03-26T09:59:45.957Z,99781.25
2023-03-26T10:03:00.247Z,99773.94
2023-03-26T10:06:03.217Z,99772.38
2023-03-26T10:09:22.941Z,99756.38
2023-03-26T10:12:50.493Z,99741.69
2023-03-26T10:16:17.797Z,99740.38
2023-03-26T10:19:23.531Z,99745.19
2023-03-26T10:22:37.696Z,99746.44
2023-03-26T10:25:40.106Z,99755.41
2023-03-26T10:28:59.550Z,99765.13
2023-03-26T10:32:30.508Z,99788.41
2023-03-26T10:35:58.149Z,99788.16
2023-03-26T10:39:36.371Z,99787.81
2023-03-26T10:42:59.413Z,99778.88
2023-03-26T10:46:04.740Z,99764.19
2023-03-26T10:49:37.722Z,99756.78
2023-03-26T10:52:47.150Z,99736.84
2023-03-26T10:55:53.717Z,99723.84
2023-03-26T10:58:56.927Z,99712.41
2023-03-26T11:02:29.710Z,99699.53
2023-03-26T11:05:51.730Z,99692.59
2023-03-26T11:08:54.281Z,99687.66
2023-03-26T11:12:26.717Z,99685.97
2023-03-26T11:15:38.480Z,99679.16
2023-03-26T11:18:49.943Z,99669.50
2023-03-26T11:22:20.521Z,99682.66
2023-03-26T11:25:38.087Z,99673.00
2023-03-26T11:29:03.204Z,99649.28
2023-03-26T11:32:11.807Z,99660.22
2023-03-26T11:35:40.235Z,99644.03
2023-03-26T11:38:48.084Z,99636.22
2023-03-26T11:42:06.332Z,99616.31
2023-03-26T11:45:18.441Z,99610.16
2023-03-26T11:48:20.956Z,99614.75
2023-03-26T11:51:27.715Z,99607.59
2023-03-26T11:54:30.145Z,99599.94
2023-03-26T11:57:35.486Z,99587.81
2023-03-26T12:00:38.278Z,99588.41
2023-03-26T12:03:40.768Z,99580.91
2023-03-26T12:07:22.349Z,99571.31
2023-03-26T12:10:34.104Z,99563.00
2023-03-26T12:13:43.383Z,99550.22
2023-03-26T12:16:59.168Z,99539.84
2023-03-26T12:20:02.365Z,99542.69
2023-03-26T12:23:05.503Z,99531.50
2023-03-26T12:26:17.589Z,99515.56
2023-03-26T12:29:20.809Z,99524.88
2023-03-26T12:32:32.476Z,99505.44
2023-03-26T12:35:42.015Z,99499.94
2023-03-26T12:38:46.085Z,99500.44
2023-03-26T12:44:46.085Z,99487.69
2023-03-26T12:46:44.203Z,99483.88
2023-03-26T12:49:17.165Z,99472.84
2023-03-26T12:52:41.404Z,99472.41
2023-03-26T12:56:03.937Z,99469.22
2023-03-26T12:59:34.271Z,99472.75
2023-03-26T13:03:06.070Z,99460.44
2023-03-26T13:06:26.854Z,99461.69
2023-03-26T13:09:55.328Z,99460.22
2023-03-26T13:13:01.532Z,99453.19
2023-03-26T13:16:17.451Z,99444.75
2023-03-26T13:19:19.978Z,99436.06
2023-03-26T13:22:34.942Z,99424.53
2023-03-26T13:25:40.729Z,99419.34
2023-03-26T13:28:55.528Z,99411.38
2023-03-26T13:32:16.431Z,99406.75
2023-03-26T13:35:31.175Z,99404.06
2023-03-26T13:38:58.538Z,99397.69
2023-03-26T13:42:25.371Z,99387.03
2023-03-26T13:45:38.113Z,99394.06
2023-03-26T13:48:47.110Z,99383.44
2023-03-26T13:52:17.510Z,99381.06
2023-03-26T13:55:32.646Z,99377.25
2023-03-26T13:58:48.857Z,99375.72
2023-03-26T14:01:54.683Z,99377.81
2023-03-26T14:05:01.408Z,99362.16
2023-03-26T14:08:37.482Z,99353.03
2023-03-26T14:12:06.675Z,99348.19
2023-03-26T14:15:36.162Z,99337.78
2023-03-26T14:18:46.751Z,99341.63
2023-03-26T14:22:02.651Z,99343.25
2023-03-26T14:25:17.120Z,99346.50
2023-03-26T14:28:36.819Z,99335.78
2023-03-26T14:31:42.881Z,99337.25
2023-03-26T14:35:13.324Z,99331.78
2023-03-26T14:38:21.798Z,99314.22
2023-03-26T14:41:25.090Z,99309.31
2023-03-26T14:44:48.684Z,99298.91
2023-03-26T14:48:29.303Z,99305.41
2023-03-26T14:52:17.174Z,99308.28
2023-03-26T14:55:31.820Z,99292.47
2023-03-26T14:58:49.495Z,99289.75
2023-03-26T15:02:23.021Z,99286.81
2023-03-26T15:05:41.249Z,99271.88
2023-03-26T15:09:00.215Z,99270.63
2023-03-26T15:12:17.973Z,99258.00
2023-03-26T15:15:35.079Z,99256.53
2023-03-26T15:18:56.469Z,99257.47
2023-03-26T15:22:28.064Z,99251.03
2023-03-26T15:25:41.548Z,99245.41
2023-03-26T15:29:24.372Z,99246.22
2023-03-26T15:33:05.366Z,99241.44
2023-03-26T15:36:32.468Z,99239.66
2023-03-26T15:40:07.869Z,99236.53
2023-03-26T15:43:14.329Z,99234.88
2023-03-26T15:46:19.948Z,99238.19
2023-03-26T15:49:45.655Z,99234.56
2023-03-26T15:53:02.740Z,99233.94
2023-03-26T15:56:17.789Z,99229.88
2023-03-26T15:59:33.170Z,99223.22
2023-03-26T16:03:10.950Z,99227.06
2023-03-26T16:06:28.132Z,99206.97
2023-03-26T16:09:49.009Z,99201.00
2023-03-26T16:13:12.987Z,99196.09
2023-03-26T16:16:15.605Z,99196.94
2023-03-26T16:19:21.929Z,99189.31
2023-03-26T16:22:43.472Z,99180.03
2023-03-26T16:26:09.624Z,99168.84
2023-03-26T16:29:14.445Z,99163.63
2023-03-26T16:32:18.426Z,99165.84
2023-03-26T16:35:26.584Z,99159.88
2023-03-26T16:38:50.635Z,99156.44
2023-03-26T16:42:06.022Z,99160.00
2023-03-26T16:45:23.845Z,99157.53
2023-03-26T16:48:32.463Z,99158.50
2023-03-26T16:52:10.734Z,99159.59
2023-03-26T16:55:35.477Z,99160.53
2023-03-26T16:58:40.972Z,99161.41
2023-03-26T17:01:48.335Z,99164.09
2023-03-26T17:04:54.117Z,99161.59
2023-03-26T17:08:16.510Z,99162.59
2023-03-26T17:11:25.464Z,99165.28
2023-03-26T17:14:41.692Z,99160.91
2023-03-26T17:18:14.348Z,99158.44
2023-03-26T17:21:25.139Z,99165.47
2023-03-26T17:24:39.095Z,99162.94
2023-03-26T17:28:33.270Z,99161.25
2023-03-26T17:32:08.893Z,99163.00
2023-03-26T17:35:14.525Z,99163.94
2023-03-26T17:38:17.646Z,99159.47
2023-03-26T17:41:55.682Z,99164.72
2023-03-26T17:44:59.864Z,99162.06
2023-03-26T17:48:10.812Z,99159.38
2023-03-26T17:51:30.504Z,99159.41
2023-03-26T17:54:44.424Z,99160.34
2023-03-26T17:57:52.165Z,99159.47
2023-03-26T18:01:27.776Z,99151.59
2023-03-26T18:04:35.206Z,99153.34
2023-03-26T18:07:57.110Z,99153.38
2023-03-26T18:11:17.951Z,99163.00
2023-03-26T18:14:49.238Z,99156.94
2023-03-26T18:17:51.732Z,99152.53
2023-03-26T18:20:55.243Z,99146.38
2023-03-26T18:23:59.787Z,99145.44
2023-03-26T18:27:14.953Z,99142.88
2023-03-26T18:30:22.767Z,99139.38
2023-03-26T18:33:26.553Z,99145.56
2023-03-26T18:36:29.207Z,99144.66
2023-03-26T18:39:31.600Z,99137.66
2023-03-26T18:42:34.121Z,99130.66
2023-03-26T18:45:37.836Z,99122.81
2023-03-26T18:48:40.547Z,99119.25
2023-03-26T18:51:56.292Z,99114.91
2023-03-26T18:54:59.591Z,99120.19
2023-03-26T18:58:31.119Z,99112.28
2023-03-26T19:01:36.719Z,99098.22
2023-03-26T19:04:39.451Z,99098.31
2023-03-26T19:07:41.915Z,99088.63
2023-03-26T19:10:48.549Z,99086.88
2023-03-26T19:14:00.226Z,99077.25
2023-03-26T19:17:03.937Z,99077.25
2023-03-26T19:20:19.339Z,99077.25
2023-03-26T19:23:23.473Z,99073.75
2023-03-26T19:26:25.934Z,99071.13
2023-03-26T19:29:34.684Z,99055.50
2023-03-26T19:32:40.228Z,99060.72
2023-03-26T19:35:51.288Z,99055.44
2023-03-26T19:38:54.993Z,99050.16
2023-03-26T19:41:57.549Z,99051.13
2023-03-26T19:45:04.582Z,99029.25
2023-03-26T19:48:14.431Z,99032.75
2023-03-26T19:51:44.490Z,99025.78
2023-03-26T19:55:01.430Z,99017.94
2023-03-26T19:58:04.326Z,99001.38
2023-03-26T20:01:07.126Z,98997.06
2023-03-26T20:04:10.187Z,98990.03
2023-03-26T20:07:14.850Z,98988.28
2023-03-26T20:10:17.624Z,98979.47
2023-03-26T20:13:20.555Z,98970.75
2023-03-26T20:16:26.872Z,98966.38
2023-03-26T20:19:29.709Z,98954.97
2023-03-26T20:22:32.820Z,98957.72
2023-03-26T20:25:35.456Z,98945.47
2023-03-26T20:28:47.405Z,98932.34
2023-03-26T20:31:50.928Z,98924.53
2023-03-26T20:34:53.529Z,98915.84
2023-03-26T20:37:55.969Z,98916.81
2023-03-26T20:40:58.751Z,98910.69
2023-03-26T20:44:03.725Z,98908.06
2023-03-26T20:47:06.361Z,98906.31
2023-03-26T20:50:10.190Z,98908.97
2023-03-26T20:53:15.129Z,98908.06
2023-03-26T20:56:18.655Z,98908.00
2023-03-26T20:59:23.161Z,98913.25
2023-03-26T21:02:25.915Z,98907.13
2023-03-26T21:05:30.115Z,98908.00
2023-03-26T21:08:36.045Z,98906.25
2023-03-26T21:12:05.755Z,98905.50
2023-03-26T21:15:22.476Z,98904.69
2023-03-26T21:18:26.206Z,98899.41
2023-03-26T21:21:57.685Z,98896.75
2023-03-26T21:25:06.179Z,98907.28
2023-03-26T21:28:41.332Z,98897.69
2023-03-26T21:31:46.800Z,98903.03
2023-03-26T21:34:58.476Z,98897.69
2023-03-26T21:38:04.195Z,98906.47
2023-03-26T21:41:07.033Z,98929.22
2023-03-26T21:44:09.583Z,98939.75
2023-03-26T21:47:12.436Z,98941.50
2023-03-26T21:50:17.940Z,98939.78
2023-03-26T21:53:22.170Z,98937.16
2023-03-26T21:56:37.601Z,98929.31
2023-03-26T22:00:08.339Z,98932.03
2023-03-26T22:03:25.612Z,98926.78
2023-03-26T22:06:50.648Z,98932.03
2023-03-26T22:09:53.420Z,98932.03
2023-03-26T22:12:55.911Z,98927.66
2023-03-26T22:15:58.669Z,98922.41
2023-03-26T22:19:01.192Z,98919.81
2023-03-26T22:22:03.712Z,98921.53
2023-03-26T22:25:06.162Z,98915.41
2023-03-26T22:28:08.887Z,98914.63
2023-03-26T22:31:12.090Z,98910.28
2023-03-26T22:34:14.459Z,98901.56
2023-03-26T22:37:17.689Z,98896.31
2023-03-26T22:40:20.597Z,98899.78
2023-03-26T22:43:23.571Z,98905.91
2023-03-26T22:46:26.224Z,98905.03
2023-03-26T22:49:30.421Z,98899.78
2023-03-26T22:52:33.571Z,98890.19
2023-03-26T22:55:36.495Z,98881.50
2023-03-26T22:58:38.892Z,98876.25
2023-03-26T23:01:41.578Z,98874.50
2023-03-26T23:04:44.406Z,98878.00
2023-03-26T23:07:47.433Z,98872.75
2023-03-26T23:10:49.994Z,98875.38
2023-03-26T23:13:52.635Z,98874.50
2023-03-26T23:16:55.412Z,98871.00
2023-03-26T23:19:57.849Z,98869.25
2023-03-26T23:23:01.286Z,98863.16
2023-03-26T23:26:06.818Z,98864.91
2023-03-26T23:29:09.597Z,98857.03
2023-03-26T23:32:24.603Z,98849.97
2023-03-26T23:35:27.689Z,98860.47
2023-03-26T23:38:43.034Z,98839.53
2023-03-26T23:41:47.009Z,98837.78
2023-03-26T23:44:49.493Z,98828.13
2023-03-26T23:47:51.985Z,98821.25
2023-03-26T23:51:04.421Z,98801.19
2023-03-26T23:54:08.825Z,98797.75
2023-03-26T23:57:11.797Z,98792.50
